Other Aviation Products
Issued by NWS

Home | Current Version | Previous Version | Text Only | Print | Product List | Glossary On
Versions: 1 2 3
879
NOAK58 PAWU 280532
OAVAWU
NATIONAL WEATHER SERVICE ALASKA AVIATION WEATHER UNIT
ANCHORAGE ALASKA

TO:    FORENSIC SERVICES MANAGER (W/OS23)
       NATIONAL WEATHER SERVICE
       C/O TELECOMMUNICATIONS GATEWAY
       SILVER SPRING, MD 20910

INFO:  ATTENTION ALASKA REGION - REGIONAL AVIATION METEOROLOGIST - W/AR1X1

ALPHA     REGAL AIR REGISTRATION NUMBER N1749R. TYPE ACFT CESSNA 206.
          NAME OF PILOT NOT REPORTED AS OF THIS TIME.

BRAVO     APPROXIMATELY 12 MILES NE OF PORT ALSWORTH, AK AROUND 9:30 AM AKDT
          ON THURSDAY JULY 27 2017. LAT/LONG OF ACCIDENT N60.32.956 W154.49.979


CHARLIE   SEARCH PARTY OF LAKE CLARK NATIONAL RANGERS FOUND THE PLANE AROUND
          1:45 PM AKDT BURNING IN THE MILLER CREEK DRAINAGE OF THE PARK
          ACCORDING TO ALASKA DISPATCH NEWS. ONE SOB...THE PILOT...WAS DEAD.

DELTA     METAR PAIL 271853Z 00000KT 8SM SCT028 OVC090 14/13 A3000
          RMK AO2 SLP158 T01390128=
          SPECI PAIL 271900Z 00000KT 9SM FEW012 BKN028 OVC085 14/13 A3000
          RMK AO2 T01390128=
          METAR PAIL 271953Z VRB03KT 10SM SCT012 BKN028 BKN085 16/13 A3000
          RMK AO2 SLP159 T01560128

ECHO      TAF AMD
          PAIL 271324Z 2713/2812 VRB04KT P6SM OVC012
          TEMPO 2713/2715 BKN006
          FM280000 30002KT P6SM SCT020 OVC030=

          TAF
          PAIL 271737Z 2718/2818 VRB04KT P6SM OVC012
          TEMPO 2718/2720 BKN006
          FM280000 30002KT P6SM SCT020 OVC030=


FOXTROT   WINDS ALOFT FROM PAKN 170727/12Z SOUNDING
          FL010 300/07  FL020 250/09  FL030 200/12 FL040 350/14
          FL050 330/16  FL060 250/15  FL070 350/12 FL080 340/12
          FL090 300/16  FL100 045/20


GOLF     FAAK58 PAWU 271220
         BRISTOL BAY AH...VALID UNTIL 280000
         ...CLOUDS/WX...
         ***AIRMET MT OBSC***E PAJZ MTS OBSC IN CLDS/PCPN. NC...
         SCT025 BKN050 TOPS 080 FEW LYRS TO 150.
         E PAJZ OCNL BKN-OVC025.
         VCY ALUTN MTS ISOL CIGS BLW 010/VIS BLW 3SM BR.
         OTLK VALID 280000-280600...ALUTN MTS MVFR CIG. ELSW VFR.
         ...TURB...
         AFT 21Z PADL-PAKN LN S OCNL MOD TURB FL300-FL360.
         ...ICE AND FZLVL...
         NIL SIG. FZLVL 100.


         FAAK48 PAWU 271214
         COOK INLET AND SUSITNA VLY AB...VALID UNTIL 280000
         ...CLOUDS/WX...
         ***AIRMET IFR***TIL 18Z PAEN S OCNL CIG BLW 010/
         ISOL VIS BLW 3SM BR/-RA BR. IMPR...
         ***AIRMET MT OBSC***MTS OCNL OBSC BY CLDS/PCPN. IMPR...
         PAEN S SCT004 BKN-OVC015 TOP 100 DCRG CI ABV.
         OCNL VIS 5SM -RA BR/BR.
         ELSW SCT020 SCT050 BKN090 TOP 110. OCNL BKN050 ISOL -SHRA.
         ISOL BKN015.
         AFT 23Z TALKEETNA MTS ISOL BKN050CB MAX TOP FL300 -TSRA.
         N PAUO ISOL BKN050TCU MAX TOP FL200 -SHRA.
         OTLK VALID 280000-280600...VFR.
         PASSES...LAKE CLARK...IFR CIG RA BR. MERRILL...VFR.
         RAINY...MVFR CIG SHRA. WINDY...VFR. PORTAGE...IFR CIG RA BR.
         ...TURB...
         NIL SIG EXC VCY CB/TCU.
         ...ICE AND FZLVL...
         TIL 15Z SE PAEN ISOL MOD ICEIC 120-FL180.
         OTRW NIL SIG EXC VCY CB/TCU. FZLVL 080 RISING TO 090.




HOTEL    UNKNOWN.

INDIA    CORRECTED TO TAKE OUT PANC TAF WHICH WAS NOT REQUIRED.

DAVID HADLEY, METEOROLOGIST, AAWU








USA.gov is the U.S. government's official web portal to all federal, state and local government web resources and services.